Terminal Aerodrome Forecast
Issued by NWS

Home | Current Version | Previous Version | Text Only | Print | Product List | Glossary On
Versions: 1 2 3 4 5 6 7 8 9 10 11 12 13 14 15 16 17 18 19
954
FTUS42 KJAX 180615 AAA
TAFVQQ
TAF AMD
KVQQ 180615Z 1806/1906 VRB03KT P6SM FEW040
      TEMPO 1806/1810 3SM BR BKN003
     FM181500 21008KT P6SM SCT250=

USA.gov is the U.S. government's official web portal to all federal, state and local government web resources and services.